Aracaju, Brazil
Current Conditions -  °F | °C
As of 3:00 AM on Thursday 29 Jan 2015 (Local Time) from SBAR Reporting Station
Few Clouds Few Clouds  
Wind Chill: 81°   Ceiling: Unl
Heat Index: 83°   Visibility: 6mi
Dew Point: 68°   Wind: 9mph
Humidity: 65%   Direction: 140°SE
Pressure: 29.88"   Gusts: NA
Location:  10.91°S, 37.07°W
Report Text: SBAR 290600Z 14008KT 9999 FEW017 27/20 Q1012
Loading
Personal Weather Stations






























Interactive Weather Map New forecast layout! Learn more

10-Day Weather Forecast

Advertisements
Track Severe Weather on mobile